74.4°F
Current conditions from King Hill
Updated every 5 minutes
 
  Monday August 3, 2015

Observations for Westford

Westford

44° 37' 39"N, 73° 02' 29"W, Elevation 850 ft.
Eastern Time

Hourly observations for the last 72 hours

Date Time Temperature (F) Humi-
dity

(%)
Wind
(mph)
Pressure Rain (in)
Air Dew 6 Hour 1 Hr 3 Hr 6 Hr Day
Alt
(in)
Sea
Level

(mb)
Max Min
3 09:00 74.0 63.2 69 SSW 8 G 21 29.62 1003.0 0.00
3 08:00 71.5 61.6 71.5 66.6 71 SSW 8 G 25 29.62 1003.1 0.00
3 07:00 68.7 60.5 75 SSW 4 G 12 29.63 1003.4 0.00
3 06:00 67.0 59.2 76 S 0 G 9 29.63 1003.4 0.00
3 05:00 67.9 58.9 73 S 4 G 14 29.63 1003.4 0.00
3 04:00 66.8 58.6 75 SW 1 G 12 29.64 1003.8 0.00
3 03:00 67.5 58.6 73 SSW 4 G 15 29.64 1003.6 0.00
3 02:00 67.1 58.2 70.1 65.2 73 S 1 G 11 29.67 1004.6 0.00
3 01:00 66.3 58.1 75 SW 0 G 7 29.67 1004.8 0.00
3 00:00 65.3 58.3 78 S 1 G 4 29.67 1004.9 0.00
2 23:00 66.1 58.7 77 S 0 G 8 29.70 1005.8 0.00
2 22:00 68.3 59.3 73 SSW 0 G 7 29.72 1006.4 0.00
2 21:00 66.5 59.8 79 SSW 0 G 7 29.72 1006.3 0.00
2 20:00 70.1 61.4 80.2 70.1 74 Calm 29.74 1007.0 0.00
2 19:00 75.2 62.2 64 SSW 3 G 9 29.73 1006.7 0.00
2 18:00 76.4 63.3 64 SW 1 G 12 29.73 1006.6 0.00
2 17:00 78.3 65.6 65 S 1 G 10 29.75 1007.3 0.00
2 16:00 78.1 62.6 59 SSW 0 G 9 29.77 1008.1 0.00
2 15:00 79.8 63.7 58 WSW 2 G 9 29.77 1008.2 0.00
2 14:00 76.9 61.5 76.9 61.5 59 SW 1 G 8 29.78 1008.4 0.00
2 13:00 75.1 64.2 69 S 0 G 10 29.79 1008.7 0.00
2 12:00 74.3 61.3 64 S 1 G 10 29.80 1009.3 0.00
2 11:00 72.8 60.8 66 WSW 3 G 11 29.81 1009.3 0.00
2 10:00 71.5 63.9 77 SSW 0 G 7 29.80 1009.2 0.00
2 09:00 67.1 61.1 81 SW 1 G 7 29.80 1009.1 0.00
2 08:00 61.5 57.9 61.5 52.7 88 SSW 1 G 8 29.80 1009.2 0.00
2 07:00 55.3 54.5 97 SSW 1 G 6 29.79 1008.8 0.00
2 06:00 53.4 52.6 97 SSW 0 G 2 29.77 1008.2 0.00
2 05:00 53.5 52.7 97 Calm 29.75 1007.5 0.00
2 04:00 53.8 53.0 97 Calm 29.75 1007.6 0.00
2 03:00 53.6 52.5 96 Calm 29.75 1007.6 0.00
2 02:00 56.4 55.3 60.4 56.3 96 Calm 29.75 1007.6 0.00
2 01:00 57.1 56.3 97 SSW 0 G 5 29.75 1007.6 0.00
2 00:00 56.5 55.7 97 Calm 29.75 1007.4 0.46
1 23:00 57.9 56.8 96 SE 0 G 5 29.75 1007.6 0.46
1 22:00 58.4 57.3 96 Calm 29.76 1007.9 0.46
1 21:00 59.2 57.8 95 Calm 29.73 1006.9 0.46
1 20:00 60.3 58.3 78.5 60.3 93 Calm 29.70 1005.9 0.44 0.44 0.44 0.46
1 19:00 69.0 62.9 81 Calm 29.68 1005.2 0.02
1 18:00 73.2 63.2 71 Calm 29.67 1004.8 0.02
1 17:00 77.0 62.1 60 N 0 G 8 29.67 1004.8 0.02
1 16:00 76.8 61.9 60 WNW 1 G 6 29.67 1004.7 0.02
1 15:00 76.4 60.6 58 NW 3 G 12 29.67 1004.8 0.02
1 14:00 75.2 63.9 75.2 63.8 68 W 3 G 11 29.67 1004.8 0.02 0.02 0.02
1 13:00 68.9 62.1 79 WSW 2 G 11 29.68 1005.0 0.02 0.02
1 12:00 70.1 62.2 76 WNW 8 G 18 29.68 1005.0 0.00
1 11:00 72.0 63.3 74 WSW 6 G 18 29.67 1004.8 0.00
1 10:00 69.7 62.5 78 SSW 2 G 11 29.67 1004.9 0.00
1 09:00 69.6 61.7 76 WSW 4 G 12 29.67 1004.8 0.00
1 08:00 65.8 62.1 65.8 58.9 88 Calm 29.66 1004.5 0.00
1 07:00 61.7 59.7 93 Calm 29.65 1004.2 0.00
1 06:00 62.1 59.1 90 SSW 1 G 5 29.65 1004.2 0.00
1 05:00 60.0 58.0 93 SW 0 G 6 29.65 1004.0 0.00
1 04:00 59.8 56.9 90 SW 0 G 1 29.63 1003.6 0.00
1 03:00 62.5 58.9 88 SW 0 G 1 29.65 1004.1 0.00
1 02:00 65.0 59.4 69.8 61.0 82 Calm 29.66 1004.4 0.00
1 01:00 65.4 58.0 77 SSW 1 G 8 29.68 1005.0 0.00
1 00:00 63.0 58.7 86 Calm 29.67 1004.9 0.00
31 23:00 61.1 58.5 91 Calm 29.68 1005.0 0.00
31 22:00 62.7 57.5 83 Calm 29.68 1005.1 0.00
31 21:00 62.9 58.3 85 SSW 0 G 3 29.68 1005.0 0.00
31 20:00 69.8 62.6 79.6 69.8 78 Calm 29.66 1004.5 0.00
31 19:00 75.8 64.1 67 SSW 0 G 1 29.66 1004.6 0.00
31 18:00 79.0 63.0 58 S 0 G 1 29.67 1004.7 0.00
31 17:00 75.5 64.2 68 Calm 29.68 1005.3 0.00
31 16:00 75.2 62.6 65 Calm 29.70 1005.7 0.00
31 15:00 78.4 63.4 60 W 0 G 6 29.71 1006.0 0.00
31 14:00 74.8 61.8 75.6 66.5 64 WNW 0 G 7 29.72 1006.4 0.00
31 13:00 73.1 63.5 72 W 4 G 10 29.73 1006.7 0.00
31 12:00 72.6 61.9 69 W 5 G 21 29.73 1006.6 0.00
31 11:00 72.4 62.1 70 WSW 3 G 13 29.73 1006.6 0.00
31 10:00 71.2 61.3 71 SW 5 G 13 29.72 1006.4 0.00

Data generated by WxSolution Version 1.8.7.6, Build 2015.07.19.


 
 
Current Radar Loop:

Copyright © WestfordWeather.net 2007-2015. All rights reserved.